Time;durP1;ratioP1;P1;durP2;ratioP2;P2;SDS_P1;SDS_P2;PMS_P1;PMS_P2;Temp;Humidity;BMP_temperature;BMP_pressure;BME280_temperature;BME280_humidity;BME280_pressure;Samples;Min_cycle;Max_cycle;Signal;HPM_P1;HPM_P2
2022/04/07 00:01:28;;;;;;;;;0.00;0.00;;;;;23.74;67.21;99684.66;5057653;28;45367;-64
2022/04/07 00:03:53;;;;;;;;;0.00;0.00;;;;;23.74;67.12;99681.09;5051709;28;45490;-62
2022/04/07 00:06:19;;;;;;;;;0.00;0.00;;;;;23.76;66.98;99666.56;5075061;28;46408;-63
2022/04/07 00:08:44;;;;;;;;;1.00;0.00;;;;;23.75;67.02;99661.25;5068105;28;45476;-64
2022/04/07 00:11:10;;;;;;;;;0.00;0.00;;;;;23.74;67.17;99655.00;5056632;28;45302;-63
2022/04/07 00:13:35;;;;;;;;;0.00;0.00;;;;;23.72;67.07;99650.69;5075739;28;45237;-61
2022/04/07 00:16:03;;;;;;;;;0.00;0.00;;;;;23.75;67.08;99642.38;5053471;28;51153;-61
2022/04/07 00:18:28;;;;;;;;;0.67;0.00;;;;;23.73;67.26;99655.97;5073210;28;45382;-63
2022/04/07 00:20:55;;;;;;;;;0.00;0.00;;;;;23.73;67.06;99657.78;5051177;28;45590;-62
2022/04/07 00:23:24;;;;;;;;;0.00;0.00;;;;;23.72;66.72;99648.84;5074211;28;45312;-62
2022/04/07 00:25:49;;;;;;;;;0.00;0.00;;;;;23.71;67.01;99654.34;5078215;28;46897;-62
2022/04/07 00:28:15;;;;;;;;;0.00;0.00;;;;;23.71;66.87;99638.16;5078353;28;45477;-64
2022/04/07 00:30:41;;;;;;;;;1.33;0.00;;;;;23.70;66.77;99642.69;5069358;28;45289;-65
2022/04/07 00:33:07;;;;;;;;;0.00;0.00;;;;;23.68;67.05;99620.34;5057164;28;45523;-64
2022/04/07 00:35:33;;;;;;;;;0.67;0.67;;;;;23.71;67.13;99639.03;5073700;28;48427;-61
2022/04/07 00:37:59;;;;;;;;;0.00;0.00;;;;;23.70;66.79;99626.53;5072059;28;45340;-62
2022/04/07 00:40:24;;;;;;;;;0.00;0.00;;;;;23.71;66.85;99624.69;5075750;28;45360;-62
2022/04/07 00:42:52;;;;;;;;;0.00;0.00;;;;;23.69;66.79;99630.16;5072630;28;45416;-61
2022/04/07 00:45:19;;;;;;;;;0.00;0.00;;;;;23.70;66.95;99617.53;5057960;28;48060;-63
2022/04/07 00:47:45;;;;;;;;;0.00;0.00;;;;;23.71;66.88;99616.59;5054831;28;45312;-64
2022/04/07 00:50:11;;;;;;;;;0.00;0.00;;;;;23.69;67.02;99602.34;5055861;28;45283;-62
2022/04/07 00:52:41;;;;;;;;;0.00;0.00;;;;;23.70;66.74;99602.28;5059111;28;45565;-65
2022/04/07 00:55:06;;;;;;;;;0.33;0.00;;;;;23.68;66.94;99588.00;5074665;28;47790;-62
2022/04/07 00:57:32;;;;;;;;;0.00;0.00;;;;;23.69;66.82;99578.94;5074411;28;45381;-61
2022/04/07 00:59:58;;;;;;;;;1.00;0.00;;;;;23.70;66.87;99577.13;5076656;28;49147;-64
2022/04/07 01:02:24;;;;;;;;;0.00;0.00;;;;;23.69;67.01;99564.59;5078123;28;45330;-63
2022/04/07 01:04:49;;;;;;;;;0.00;0.00;;;;;23.69;66.87;99560.09;5069658;28;45496;-62
2022/04/07 01:07:14;;;;;;;;;0.00;0.00;;;;;23.68;66.65;99546.72;5060028;28;45478;-61
2022/04/07 01:09:43;;;;;;;;;0.00;0.00;;;;;23.67;66.74;99536.91;5059843;28;45720;-65
2022/04/07 01:12:09;;;;;;;;;0.00;0.00;;;;;23.67;66.73;99539.59;5064401;28;45286;-62
2022/04/07 01:14:34;;;;;;;;;0.67;0.00;;;;;23.67;66.76;99539.59;5073580;28;46923;-64
2022/04/07 01:17:01;;;;;;;;;0.00;0.00;;;;;23.67;66.89;99534.22;5073125;28;45489;-61
2022/04/07 01:19:26;;;;;;;;;1.33;0.00;;;;;23.66;67.08;99530.66;5076204;28;45481;-63
2022/04/07 01:21:52;;;;;;;;;0.00;0.00;;;;;23.65;67.10;99528.03;5070581;28;45467;-61
2022/04/07 01:24:18;;;;;;;;;0.67;0.00;;;;;23.68;66.80;99533.25;5058714;28;46959;-62
2022/04/07 01:26:45;;;;;;;;;0.00;0.00;;;;;23.67;66.68;99532.38;5077170;28;45577;-64
2022/04/07 01:29:14;;;;;;;;;0.00;0.00;;;;;23.67;66.83;99528.81;5077291;28;45291;-62
2022/04/07 01:31:40;;;;;;;;;0.00;0.00;;;;;23.66;66.70;99532.47;5071690;28;45647;-62
2022/04/07 01:34:07;;;;;;;;;0.00;0.00;;;;;23.68;66.60;99531.41;5075157;28;46647;-62
2022/04/07 01:36:35;;;;;;;;;0.00;0.00;;;;;23.69;66.74;99540.34;5072962;28;45327;-62
2022/04/07 01:39:02;;;;;;;;;0.00;0.00;;;;;23.69;66.44;99516.09;5059513;28;45928;-62
2022/04/07 01:41:28;;;;;;;;;0.00;0.00;;;;;23.66;66.75;99498.31;5068097;28;47404;-61
2022/04/07 01:43:55;;;;;;;;;0.00;0.00;;;;;23.69;66.94;99502.63;5076313;28;47238;-61
2022/04/07 01:46:21;;;;;;;;;1.00;0.00;;;;;23.70;66.67;99504.34;5073742;28;45681;-64
2022/04/07 01:48:46;;;;;;;;;0.00;0.00;;;;;23.69;66.68;99490.00;5059563;28;45658;-60
2022/04/07 01:51:12;;;;;;;;;0.00;0.00;;;;;23.67;66.67;99481.16;5067720;28;45251;-62
2022/04/07 01:53:39;;;;;;;;;0.00;0.00;;;;;23.70;66.45;99480.09;5074523;28;45521;-62
2022/04/07 01:56:05;;;;;;;;;0.67;0.00;;;;;23.69;66.50;99479.22;5074012;28;45324;-64
2022/04/07 01:58:31;;;;;;;;;0.00;0.00;;;;;23.68;66.61;99493.66;5058524;28;45427;-64
2022/04/07 02:00:58;;;;;;;;;0.00;0.00;;;;;23.66;66.56;99476.75;5077308;28;45588;-61
2022/04/07 02:03:28;;;;;;;;;3.00;0.00;;;;;23.70;66.72;99516.03;5076303;28;46912;-62
2022/04/07 02:05:53;;;;;;;;;0.00;0.00;;;;;23.70;66.87;99493.56;5069901;28;45489;-62
2022/04/07 02:08:18;;;;;;;;;0.00;0.00;;;;;23.71;66.76;99484.53;5058736;28;45584;-63
2022/04/07 02:10:44;;;;;;;;;0.00;0.00;;;;;23.68;66.79;99472.09;5076064;28;45643;-63
2022/04/07 02:13:10;;;;;;;;;0.00;0.00;;;;;23.72;66.44;99478.19;5071528;28;53645;-61
2022/04/07 02:15:36;;;;;;;;;2.00;1.00;;;;;23.71;66.37;99463.84;5076793;28;45311;-62
2022/04/07 02:18:02;;;;;;;;;0.00;0.00;;;;;23.72;66.30;99462.00;5078713;28;45499;-63
2022/04/07 02:20:27;;;;;;;;;0.00;0.00;;;;;23.69;66.37;99463.06;5072121;28;45501;-61
2022/04/07 02:22:53;;;;;;;;;0.00;0.00;;;;;23.70;66.30;99462.13;5070665;28;47632;-62
2022/04/07 02:25:23;;;;;;;;;0.00;0.00;;;;;23.71;66.40;99469.22;5058426;28;45374;-61
2022/04/07 02:27:48;;;;;;;;;0.00;0.00;;;;;23.71;66.78;99457.59;5076466;28;45384;-60
2022/04/07 02:30:14;;;;;;;;;2.00;0.00;;;;;23.70;66.52;99439.66;5072163;28;45460;-61
2022/04/07 02:32:40;;;;;;;;;0.67;0.00;;;;;23.70;66.39;99435.16;5072934;28;46781;-62
2022/04/07 02:35:07;;;;;;;;;0.00;0.00;;;;;23.73;66.47;99417.91;5070306;28;45534;-62
2022/04/07 02:37:32;;;;;;;;;1.00;0.00;;;;;23.72;66.41;99425.13;5068625;28;45709;-61
2022/04/07 02:39:57;;;;;;;;;1.67;0.00;;;;;23.73;66.49;99412.53;5076774;28;45312;-61
2022/04/07 02:42:24;;;;;;;;;0.00;0.00;;;;;23.69;66.45;99397.50;5075259;28;45667;-62
2022/04/07 02:44:50;;;;;;;;;0.00;0.00;;;;;23.70;66.59;99394.75;5072781;28;46520;-62
2022/04/07 02:47:16;;;;;;;;;0.00;0.00;;;;;23.70;66.26;99385.75;5076708;28;45810;-62
2022/04/07 02:49:42;;;;;;;;;0.00;0.00;;;;;23.72;66.40;99391.94;5075721;28;45385;-60
2022/04/07 02:52:09;;;;;;;;;0.00;0.00;;;;;23.70;66.67;99375.88;5066951;28;47901;-64
2022/04/07 02:54:34;;;;;;;;;0.00;0.00;;;;;23.71;66.51;99368.66;5076165;28;45402;-62
2022/04/07 02:57:03;;;;;;;;;0.00;0.00;;;;;23.72;66.75;99367.69;5053255;28;45382;-62
2022/04/07 02:59:29;;;;;;;;;0.00;0.00;;;;;23.71;66.84;99360.56;5073453;28;45536;-61
2022/04/07 03:01:56;;;;;;;;;0.00;0.00;;;;;23.71;66.69;99353.34;5055536;28;48473;-61
2022/04/07 03:04:24;;;;;;;;;3.00;0.00;;;;;23.75;66.61;99349.44;5074027;28;45390;-60
2022/04/07 03:06:52;;;;;;;;;0.00;0.00;;;;;23.76;66.72;99355.72;5076356;28;45285;-64
2022/04/07 03:09:18;;;;;;;;;0.33;0.00;;;;;23.76;66.40;99336.88;5072922;28;45493;-64
2022/04/07 03:11:46;;;;;;;;;0.00;0.00;;;;;23.80;66.62;99341.06;5074595;28;47764;-64
2022/04/07 03:14:12;;;;;;;;;0.00;0.00;;;;;23.79;66.37;99336.63;5068330;28;45318;-62
2022/04/07 03:16:38;;;;;;;;;3.00;0.00;;;;;23.79;66.44;99326.72;5074279;28;45252;-61
2022/04/07 03:19:03;;;;;;;;;0.00;0.00;;;;;23.79;66.33;99329.41;5074156;28;45533;-64
2022/04/07 03:21:28;;;;;;;;;0.00;0.00;;;;;23.78;66.34;99303.44;5053262;28;49580;-61
2022/04/07 03:23:55;;;;;;;;;0.00;0.00;;;;;23.79;66.62;99306.97;5071357;28;45532;-61
2022/04/07 03:26:20;;;;;;;;;0.00;0.00;;;;;23.78;66.04;99295.34;5067722;28;45415;-62
2022/04/07 03:28:46;;;;;;;;;0.00;0.00;;;;;23.77;66.16;99290.94;5056659;28;45509;-63
2022/04/07 03:31:11;;;;;;;;;0.00;0.00;;;;;23.78;66.42;99287.25;5068660;28;45327;-62
2022/04/07 03:33:40;;;;;;;;;0.00;0.00;;;;;23.76;66.17;99275.72;5066663;28;45286;-62
2022/04/07 03:36:05;;;;;;;;;0.00;0.00;;;;;23.76;66.25;99273.03;5057381;28;47042;-64
2022/04/07 03:38:30;;;;;;;;;0.00;0.00;;;;;23.75;66.38;99262.34;5070805;28;45407;-61
2022/04/07 03:40:56;;;;;;;;;0.00;0.00;;;;;23.74;66.16;99250.69;5073747;28;46877;-62
2022/04/07 03:43:21;;;;;;;;;0.00;0.00;;;;;23.71;66.44;99239.28;5074110;28;45339;-61
2022/04/07 03:45:47;;;;;;;;;0.00;0.00;;;;;23.74;66.33;99234.53;5075269;28;45506;-63
2022/04/07 03:48:13;;;;;;;;;0.00;0.00;;;;;23.71;66.19;99218.59;5075864;28;45621;-62
2022/04/07 03:50:39;;;;;;;;;0.00;0.00;;;;;23.70;66.18;99214.16;5061463;28;46695;-61
2022/04/07 03:53:04;;;;;;;;;0.00;0.00;;;;;23.71;66.11;99213.19;5073406;28;45453;-61
2022/04/07 03:55:30;;;;;;;;;0.00;0.00;;;;;23.70;66.39;99197.09;5079315;28;45212;-62
2022/04/07 03:57:55;;;;;;;;;1.00;0.00;;;;;23.69;66.37;99195.38;5079408;28;45532;-62
2022/04/07 04:00:23;;;;;;;;;0.00;0.00;;;;;23.69;66.02;99180.06;5071796;28;46985;-61
2022/04/07 04:02:50;;;;;;;;;0.00;0.00;;;;;23.70;66.50;99178.25;5067572;28;45564;-61
2022/04/07 04:05:16;;;;;;;;;1.00;0.00;;;;;23.66;66.43;99168.66;5077445;28;45323;-62
2022/04/07 04:07:44;;;;;;;;;0.00;0.00;;;;;23.67;66.21;99168.56;5054556;28;45336;-62
2022/04/07 04:10:10;;;;;;;;;0.00;0.00;;;;;23.68;66.62;99164.03;5075019;28;46841;-62
2022/04/07 04:12:35;;;;;;;;;0.00;0.00;;;;;23.66;66.39;99156.06;5059828;28;46147;-63
2022/04/07 04:15:01;;;;;;;;;1.00;0.00;;;;;23.64;66.44;99140.94;5079015;28;45312;-62
2022/04/07 04:17:37;;;;;;;;;0.00;0.00;;;;;23.66;66.54;99147.09;5076111;28;45562;-61
2022/04/07 04:20:03;;;;;;;;;0.00;0.00;;;;;23.66;66.09;99156.06;5070457;28;46845;-63
2022/04/07 04:22:28;;;;;;;;;0.00;0.00;;;;;23.67;66.35;99138.03;5055542;28;46718;-64
2022/04/07 04:24:54;;;;;;;;;1.00;0.00;;;;;23.67;66.83;99141.59;5074217;28;57337;-62
2022/04/07 04:27:19;;;;;;;;;1.00;0.00;;;;;23.63;66.56;99139.22;5070079;28;45379;-61
2022/04/07 04:29:47;;;;;;;;;0.00;0.00;;;;;23.63;66.56;99128.44;5069905;28;46302;-62
2022/04/07 04:32:16;;;;;;;;;0.00;0.00;;;;;23.66;66.31;99149.81;5071035;28;45382;-65
2022/04/07 04:34:42;;;;;;;;;0.00;0.00;;;;;23.63;66.40;99134.69;5043658;28;45354;-62
2022/04/07 04:37:07;;;;;;;;;0.00;0.00;;;;;23.65;66.32;99131.88;5075721;28;45545;-65
2022/04/07 04:39:33;;;;;;;;;0.33;0.00;;;;;23.62;66.57;99124.00;5072671;28;46598;-63
2022/04/07 04:41:58;;;;;;;;;1.33;0.00;;;;;23.64;66.71;99124.78;5074403;28;46510;-64
2022/04/07 04:44:27;;;;;;;;;0.00;0.00;;;;;23.66;66.71;99131.78;5077920;28;45597;-66
2022/04/07 04:46:52;;;;;;;;;0.00;0.00;;;;;23.66;66.56;99142.56;5068685;28;45365;-68
2022/04/07 04:49:17;;;;;;;;;0.00;0.00;;;;;23.66;66.62;99109.38;5076580;28;46773;-63
2022/04/07 04:51:50;;;;;;;;;0.00;0.00;;;;;23.66;66.50;99098.59;5070191;28;45501;-66
2022/04/07 04:54:16;;;;;;;;;0.67;0.00;;;;;23.68;66.48;99110.97;5065405;28;45572;-65
2022/04/07 04:56:41;;;;;;;;;0.00;0.00;;;;;23.68;66.94;99110.97;5047185;28;45367;-61
2022/04/07 04:59:11;;;;;;;;;0.00;0.00;;;;;23.68;66.84;99093.94;5072585;28;57996;-63
2022/04/07 05:01:36;;;;;;;;;0.00;0.00;;;;;23.70;66.79;99097.38;5067800;28;45582;-63
2022/04/07 05:04:02;;;;;;;;;0.00;0.00;;;;;23.70;66.64;99094.69;5073285;28;45958;-64
2022/04/07 05:06:27;;;;;;;;;2.33;0.00;;;;;23.71;66.71;99099.13;5074225;28;45502;-60
2022/04/07 05:08:53;;;;;;;;;0.00;0.00;;;;;23.72;66.42;99095.47;5074884;28;46577;-60
2022/04/07 05:11:22;;;;;;;;;6.33;2.00;;;;;23.73;66.18;99089.97;5069597;28;45509;-65
2022/04/07 05:13:47;;;;;;;;;0.00;0.00;;;;;23.56;63.09;99078.63;5073326;28;45634;-65
2022/04/07 05:16:15;;;;;;;;;1.00;1.00;;;;;23.26;61.26;99093.25;5075673;28;45400;-63
2022/04/07 05:18:46;;;;;;;;;2.67;1.33;;;;;22.93;60.92;99075.75;5071646;28;45481;-62
2022/04/07 05:21:15;;;;;;;;;0.00;0.00;;;;;22.62;60.58;99081.44;5076810;28;45448;-62
2022/04/07 05:23:40;;;;;;;;;3.33;1.00;;;;;22.30;60.46;99065.59;5075054;28;45237;-65
2022/04/07 05:26:06;;;;;;;;;4.00;1.00;;;;;21.96;60.86;99064.19;5061783;28;45557;-63
2022/04/07 05:28:31;;;;;;;;;2.00;1.00;;;;;21.67;61.45;99071.41;5056012;28;47239;-63
2022/04/07 05:30:57;;;;;;;;;1.33;0.00;;;;;21.44;62.02;99075.53;5070837;28;47662;-65
2022/04/07 05:33:22;;;;;;;;;1.00;0.67;;;;;21.23;63.25;99074.13;5071939;28;45668;-67
2022/04/07 05:35:48;;;;;;;;;1.00;0.00;;;;;20.99;63.77;99063.94;5076001;28;45557;-63
2022/04/07 05:38:14;;;;;;;;;2.33;1.00;;;;;20.77;64.48;99063.44;5074319;28;45976;-62
2022/04/07 05:40:39;;;;;;;;;3.00;1.00;;;;;20.51;65.63;99048.91;5072531;28;45528;-63
2022/04/07 05:43:05;;;;;;;;;1.33;0.33;;;;;20.26;66.81;99039.56;5069039;28;45675;-63
2022/04/07 05:45:31;;;;;;;;;3.33;1.00;;;;;20.07;67.58;99036.19;5076285;28;45249;-68
2022/04/07 05:47:56;;;;;;;;;1.67;0.00;;;;;19.85;68.79;99042.75;5072183;28;45882;-66
2022/04/07 05:50:22;;;;;;;;;0.00;0.00;;;;;19.68;69.12;99025.91;5070139;28;45395;-66
2022/04/07 05:52:47;;;;;;;;;0.33;0.00;;;;;19.56;70.30;99030.09;5056324;28;45525;-64
2022/04/07 05:55:13;;;;;;;;;2.00;0.00;;;;;19.44;70.43;99030.75;5074097;28;45513;-68
2022/04/07 05:57:38;;;;;;;;;0.00;0.00;;;;;19.27;71.57;99034.31;5053534;28;46458;-67
2022/04/07 06:00:11;;;;;;;;;0.67;0.67;;;;;19.04;72.22;99015.00;5055810;28;45537;-63
2022/04/07 06:02:37;;;;;;;;;0.00;0.00;;;;;18.93;73.41;99036.09;5069314;28;45587;-65
2022/04/07 06:05:02;;;;;;;;;2.67;0.00;;;;;18.83;74.87;99024.16;5069892;28;45692;-64
2022/04/07 06:07:28;;;;;;;;;1.33;0.00;;;;;18.73;74.32;99025.56;5073738;28;46418;-67
2022/04/07 06:09:53;;;;;;;;;0.00;0.00;;;;;18.67;74.20;99039.22;5076903;28;45438;-68
2022/04/07 06:12:19;;;;;;;;;2.33;0.00;;;;;18.61;77.70;99029.72;5073686;28;45462;-61
2022/04/07 06:14:44;;;;;;;;;0.00;0.00;;;;;18.73;79.00;99030.91;5068588;28;45647;-61
2022/04/07 06:17:10;;;;;;;;;0.33;0.00;;;;;18.95;79.33;99019.97;5075706;28;46656;-62
2022/04/07 06:19:35;;;;;;;;;1.33;0.00;;;;;19.17;79.47;99022.38;5067816;28;50654;-61
2022/04/07 06:22:00;;;;;;;;;0.00;0.00;;;;;19.41;79.02;99021.06;5039185;28;47802;-62
2022/04/07 06:24:27;;;;;;;;;0.00;0.00;;;;;19.63;79.18;99029.69;5077273;28;45553;-61
2022/04/07 06:26:52;;;;;;;;;1.33;0.00;;;;;19.87;78.97;99007.88;5061238;28;46635;-63
2022/04/07 06:29:18;;;;;;;;;1.33;0.00;;;;;20.09;79.05;99018.22;5057792;28;45533;-61
2022/04/07 06:31:43;;;;;;;;;0.00;0.00;;;;;20.26;79.89;99004.72;5075137;28;45606;-70
2022/04/07 06:34:08;;;;;;;;;2.00;0.00;;;;;20.39;79.01;99003.03;5057129;28;45435;-62
2022/04/07 06:36:34;;;;;;;;;0.67;0.00;;;;;20.56;77.82;99011.94;5069469;28;51756;-63
2022/04/07 06:38:59;;;;;;;;;0.00;0.00;;;;;20.72;77.89;98994.00;5069785;28;47416;-62
2022/04/07 06:41:25;;;;;;;;;2.00;0.00;;;;;20.88;77.71;98986.75;5070690;28;45394;-60
2022/04/07 06:43:50;;;;;;;;;0.00;0.00;;;;;21.03;77.39;98997.50;5075514;28;45306;-62
2022/04/07 06:46:16;;;;;;;;;2.67;0.00;;;;;21.18;76.90;98993.88;5068488;28;48476;-61
2022/04/07 06:48:42;;;;;;;;;1.33;1.00;;;;;21.33;76.22;98989.41;5057503;28;49810;-61
2022/04/07 06:51:09;;;;;;;;;0.67;0.67;;;;;21.46;75.79;98979.63;5071157;28;45394;-61
2022/04/07 06:53:35;;;;;;;;;3.00;0.00;;;;;21.55;75.75;98976.34;5070809;28;45608;-62
2022/04/07 06:56:00;;;;;;;;;0.00;0.00;;;;;21.67;75.37;98988.13;5073518;28;46579;-63
2022/04/07 06:58:25;;;;;;;;;1.00;0.67;;;;;21.76;74.71;98971.44;5076198;28;50636;-61
2022/04/07 07:00:51;;;;;;;;;0.00;0.00;;;;;21.86;74.60;98977.06;5058385;28;45291;-61
2022/04/07 07:03:16;;;;;;;;;1.33;0.00;;;;;21.95;74.37;98954.97;5058289;28;45521;-61
2022/04/07 07:05:42;;;;;;;;;0.33;0.33;;;;;22.03;73.97;98976.81;5068794;28;46527;-62
2022/04/07 07:08:20;;;;;;;;;0.00;0.00;;;;;22.10;73.67;98979.97;5073016;28;45490;-62
2022/04/07 07:10:47;;;;;;;;;0.00;0.00;;;;;22.17;73.41;98981.34;5059653;28;45944;-61
2022/04/07 07:13:13;;;;;;;;;0.33;0.00;;;;;22.20;73.57;98989.19;5072859;28;45161;-63
2022/04/07 07:15:40;;;;;;;;;1.00;0.00;;;;;22.27;73.13;98966.31;5057589;28;46550;-62
2022/04/07 07:18:06;;;;;;;;;1.00;0.00;;;;;22.27;73.42;98963.63;5070204;28;45419;-62
2022/04/07 07:20:31;;;;;;;;;0.67;0.00;;;;;22.37;72.72;98956.69;5073891;28;45497;-60
2022/04/07 07:22:56;;;;;;;;;0.67;0.67;;;;;22.41;72.48;98955.47;5069797;28;45452;-63
2022/04/07 07:25:22;;;;;;;;;1.33;0.33;;;;;22.45;72.41;98983.03;5076521;28;46711;-63
2022/04/07 07:27:47;;;;;;;;;0.00;0.00;;;;;22.49;72.05;98953.16;5078661;28;45467;-63
2022/04/07 07:30:15;;;;;;;;;1.00;1.00;;;;;22.52;72.28;98967.34;5071411;28;45483;-61
2022/04/07 07:32:42;;;;;;;;;0.00;0.00;;;;;22.54;72.49;98951.97;5058263;28;46799;-61
2022/04/07 07:35:08;;;;;;;;;0.00;0.00;;;;;22.58;72.09;98967.78;5079548;28;47128;-61
2022/04/07 07:37:34;;;;;;;;;2.33;0.00;;;;;22.60;71.85;98971.25;5077134;28;45332;-63
2022/04/07 07:40:18;;;;;;;;;0.33;0.33;;;;;22.63;72.22;98954.88;5072052;28;45430;-62
2022/04/07 07:42:43;;;;;;;;;0.00;0.00;;;;;22.63;71.79;98957.56;5072820;28;45384;-61
2022/04/07 07:45:09;;;;;;;;;0.00;0.00;;;;;22.65;71.94;98952.97;5202915;22;46976;-61
2022/04/07 07:47:35;;;;;;;;;0.00;0.00;;;;;22.68;71.74;98944.66;5061878;28;45305;-62
2022/04/07 07:50:01;;;;;;;;;0.33;0.00;;;;;22.69;71.33;98932.97;5076996;28;45581;-61
2022/04/07 07:52:27;;;;;;;;;2.00;0.00;;;;;22.72;71.24;98927.34;5079786;28;45407;-61
2022/04/07 07:54:52;;;;;;;;;0.67;0.67;;;;;22.77;71.60;98932.41;5078157;28;46683;-62
2022/04/07 07:57:19;;;;;;;;;2.00;1.00;;;;;22.78;71.20;98936.81;5078889;28;45488;-62
2022/04/07 07:59:44;;;;;;;;;2.00;0.00;;;;;22.80;71.13;98937.59;5056473;28;45346;-61
2022/04/07 08:02:10;;;;;;;;;2.00;0.67;;;;;22.83;71.63;98928.44;5078391;28;45669;-61
2022/04/07 08:04:35;;;;;;;;;0.00;0.00;;;;;22.86;71.01;98937.16;5078200;28;46518;-62
2022/04/07 08:07:00;;;;;;;;;1.00;1.00;;;;;22.87;71.18;98936.19;5079103;28;48763;-62
2022/04/07 08:09:26;;;;;;;;;0.00;0.00;;;;;22.91;70.79;98926.13;5078779;28;45341;-61
2022/04/07 08:11:51;;;;;;;;;1.00;1.00;;;;;22.92;71.00;98930.53;5075878;28;45502;-63
2022/04/07 08:14:16;;;;;;;;;0.00;0.00;;;;;22.93;70.70;98932.25;5079218;28;45925;-62
2022/04/07 08:16:42;;;;;;;;;1.00;1.00;;;;;22.97;71.24;98923.84;5072499;28;45512;-61
2022/04/07 08:19:09;;;;;;;;;1.00;0.00;;;;;22.98;70.64;98920.19;5079037;28;45475;-63
2022/04/07 08:21:34;;;;;;;;;0.00;0.00;;;;;23.01;70.69;98919.13;5078278;28;45441;-63
2022/04/07 08:24:00;;;;;;;;;3.00;0.00;;;;;23.04;71.00;98912.63;5060621;28;45963;-63
2022/04/07 08:26:25;;;;;;;;;1.67;0.00;;;;;23.04;71.07;98918.03;5078981;28;45545;-62
2022/04/07 08:28:50;;;;;;;;;2.00;0.00;;;;;23.07;70.86;98931.28;5078258;28;45515;-62
2022/04/07 08:31:16;;;;;;;;;0.00;0.00;;;;;23.09;70.97;98923.94;5073731;28;45514;-63
2022/04/07 08:33:42;;;;;;;;;0.00;0.00;;;;;23.12;70.67;98910.28;5074510;28;46758;-62
2022/04/07 08:36:07;;;;;;;;;1.00;0.00;;;;;23.11;70.22;98909.38;5078461;28;47078;-61
2022/04/07 08:38:33;;;;;;;;;1.33;0.33;;;;;23.14;70.37;98913.72;5072876;28;45546;-62
2022/04/07 08:41:00;;;;;;;;;2.00;0.33;;;;;23.17;70.76;98913.47;5078781;28;45533;-61
2022/04/07 08:43:25;;;;;;;;;0.00;0.00;;;;;23.15;70.45;98913.59;5043506;28;48647;-62
2022/04/07 08:45:51;;;;;;;;;3.00;0.00;;;;;23.17;70.25;98908.09;5075108;28;45510;-61
2022/04/07 08:48:16;;;;;;;;;2.00;0.00;;;;;23.21;70.35;98917.69;5060185;28;45565;-63
2022/04/07 08:50:43;;;;;;;;;2.00;0.00;;;;;23.21;70.47;98913.16;5076309;28;45447;-62
2022/04/07 08:53:10;;;;;;;;;0.00;0.00;;;;;23.23;70.31;98916.63;5075418;28;47574;-62
2022/04/07 08:55:35;;;;;;;;;0.00;0.00;;;;;23.24;70.20;98920.16;5075284;28;45592;-62
2022/04/07 08:58:02;;;;;;;;;0.00;0.00;;;;;23.23;70.42;98916.63;5077569;28;45536;-62
2022/04/07 09:00:27;;;;;;;;;0.00;0.00;;;;;23.25;70.09;98909.28;5052228;28;45758;-61
2022/04/07 09:02:53;;;;;;;;;2.00;0.00;;;;;23.28;70.15;98902.81;5077589;28;45758;-62
2022/04/07 09:05:25;;;;;;;;;1.33;0.00;;;;;23.29;70.18;98909.91;5077332;28;45367;-63
2022/04/07 09:07:53;;;;;;;;;2.33;0.00;;;;;23.30;70.04;98930.50;5078411;28;45518;-61
2022/04/07 09:10:20;;;;;;;;;1.00;0.00;;;;;23.32;70.38;98936.63;5077559;28;45469;-62
2022/04/07 09:12:45;;;;;;;;;2.00;1.00;;;;;23.33;70.19;98918.63;5059726;28;47577;-61
2022/04/07 09:15:13;;;;;;;;;2.00;0.00;;;;;23.34;70.01;98921.22;5077610;28;45531;-62
2022/04/07 09:18:01;;;;;;;;;0.00;0.00;;;;;23.36;69.96;98911.19;5077248;28;45391;-63
2022/04/07 09:20:27;;;;;;;;;1.00;0.00;;;;;23.37;69.92;98912.91;5076187;28;45489;-62
2022/04/07 09:22:59;;;;;;;;;1.67;0.00;;;;;23.37;69.81;98920.97;5077564;28;45864;-61
2022/04/07 09:25:25;;;;;;;;;2.00;0.67;;;;;23.36;69.83;98916.56;5073257;28;45391;-62
2022/04/07 09:27:51;;;;;;;;;0.67;0.67;;;;;23.35;69.94;98904.09;5075127;28;45501;-62
2022/04/07 09:30:17;;;;;;;;;1.00;0.00;;;;;23.37;69.76;98920.97;5072124;28;45403;-61
2022/04/07 09:32:43;;;;;;;;;0.67;0.00;;;;;23.38;69.67;98909.22;5077845;28;47683;-63
2022/04/07 09:35:11;;;;;;;;;0.00;0.00;;;;;23.36;69.71;98910.34;5077412;28;45435;-61
2022/04/07 09:37:38;;;;;;;;;0.00;0.00;;;;;23.38;69.77;98921.84;5072291;28;45540;-61
2022/04/07 09:40:09;;;;;;;;;1.00;1.00;;;;;23.40;69.92;98944.16;5047180;28;45452;-63
2022/04/07 09:42:35;;;;;;;;;0.00;0.00;;;;;23.39;69.64;98937.06;5073775;28;46728;-62
2022/04/07 09:45:02;;;;;;;;;1.33;0.00;;;;;23.39;69.62;98942.44;5076678;28;45349;-61
2022/04/07 09:47:38;;;;;;;;;0.67;0.67;;;;;23.41;69.74;98940.50;5070187;28;45555;-61
2022/04/07 09:50:05;;;;;;;;;0.00;0.00;;;;;23.41;69.71;98946.72;5076779;28;45323;-63
2022/04/07 09:52:31;;;;;;;;;2.67;0.00;;;;;23.39;69.58;98959.47;5073424;28;47961;-62
2022/04/07 09:55:02;;;;;;;;;0.67;0.00;;;;;23.40;69.61;98954.94;5075472;28;48581;-61
2022/04/07 09:57:28;;;;;;;;;0.00;0.00;;;;;23.41;69.71;98960.22;5071710;28;45336;-62
2022/04/07 09:59:54;;;;;;;;;2.00;0.33;;;;;23.42;69.73;98974.53;5077146;28;45518;-63
2022/04/07 10:02:20;;;;;;;;;0.67;0.00;;;;;23.41;69.67;98976.38;5077196;28;46979;-62
2022/04/07 10:04:46;;;;;;;;;0.00;0.00;;;;;23.41;69.52;99000.59;5059256;28;45241;-63
2022/04/07 10:07:13;;;;;;;;;1.00;0.00;;;;;23.42;69.49;99034.66;5066775;28;45491;-62
2022/04/07 10:09:42;;;;;;;;;1.00;0.67;;;;;23.40;69.70;99041.13;5067229;28;45507;-63
2022/04/07 10:12:09;;;;;;;;;0.00;0.00;;;;;23.42;69.58;99042.72;5074599;28;45772;-62
2022/04/07 10:14:34;;;;;;;;;1.00;1.00;;;;;23.41;69.65;99041.00;5077121;28;45315;-62
2022/04/07 10:17:00;;;;;;;;;0.00;0.00;;;;;23.42;69.72;99050.81;5074149;28;47190;-62
2022/04/07 10:19:28;;;;;;;;;0.00;0.00;;;;;23.43;69.70;99049.84;5071451;28;45331;-62
2022/04/07 10:22:39;;;;;;;;;1.33;1.00;;;;;23.42;69.69;99045.44;5076606;28;46587;-61
2022/04/07 10:25:05;;;;;;;;;0.00;0.00;;;;;23.41;69.87;99053.63;5073135;28;46276;-62
2022/04/07 10:27:34;;;;;;;;;0.00;0.00;;;;;23.43;69.54;99073.22;5059448;28;45399;-62
2022/04/07 10:30:08;;;;;;;;;0.00;0.00;;;;;23.44;69.71;99077.66;5066310;28;45674;-61
2022/04/07 10:32:38;;;;;;;;;3.00;0.00;;;;;23.43;69.74;99086.69;5073711;28;47167;-63
2022/04/07 10:35:03;;;;;;;;;0.00;0.00;;;;;23.43;69.63;99092.94;5058437;28;45256;-63
2022/04/07 10:37:30;;;;;;;;;1.00;0.00;;;;;23.41;69.65;99086.81;5071405;28;45318;-62
2022/04/07 10:39:55;;;;;;;;;0.00;0.00;;;;;23.42;69.82;99088.53;5077038;28;45351;-61
2022/04/07 10:42:59;;;;;;;;;0.00;0.00;;;;;23.43;69.71;99102.84;5073594;28;46293;-62
2022/04/07 10:45:31;;;;;;;;;1.00;0.00;;;;;23.42;69.80;99111.91;5069989;28;45306;-63
2022/04/07 10:48:15;;;;;;;;;4.33;0.00;;;;;23.42;69.90;99111.91;5075559;28;45518;-61
2022/04/07 10:50:48;;;;;;;;;1.00;1.00;;;;;23.42;69.83;99109.22;5069797;28;45509;-61
2022/04/07 10:53:25;;;;;;;;;0.00;0.00;;;;;23.42;69.84;99120.00;5070992;28;46321;-61
2022/04/07 10:55:58;;;;;;;;;1.00;0.00;;;;;23.40;70.05;99119.25;5076478;28;45475;-62
2022/04/07 10:58:38;;;;;;;;;2.67;0.00;;;;;23.41;69.78;99121.81;5076372;28;45574;-61
2022/04/07 11:01:03;;;;;;;;;1.00;0.00;;;;;23.40;69.96;99125.50;5076645;28;45478;-62
2022/04/07 11:03:28;;;;;;;;;0.00;0.00;;;;;23.40;69.87;99122.81;5074783;28;47188;-62
2022/04/07 11:05:58;;;;;;;;;0.00;0.00;;;;;23.42;70.37;99137.00;5070588;28;51809;-61
2022/04/07 11:08:24;;;;;;;;;0.00;0.00;;;;;23.41;69.84;99137.97;5054928;28;45258;-62
2022/04/07 11:10:50;;;;;;;;;1.00;1.00;;;;;23.40;69.80;99128.19;5075799;28;45611;-61
2022/04/07 11:13:16;;;;;;;;;0.00;0.00;;;;;23.43;70.01;99135.19;5067702;28;47401;-63
2022/04/07 11:15:52;;;;;;;;;0.00;0.00;;;;;23.43;69.86;99138.72;5069230;28;45353;-62
2022/04/07 11:18:21;;;;;;;;;0.00;0.00;;;;;23.42;69.98;99141.53;5059362;28;45577;-61
2022/04/07 11:21:01;;;;;;;;;0.00;0.00;;;;;23.44;70.06;99153.94;5061074;28;45332;-62
2022/04/07 11:23:56;;;;;;;;;0.00;0.00;;;;;23.45;69.98;99152.13;5076061;28;45686;-62
2022/04/07 11:26:25;;;;;;;;;0.33;0.33;;;;;23.45;70.05;99162.91;5075049;28;45565;-62
2022/04/07 11:29:05;;;;;;;;;2.00;0.00;;;;;23.45;70.04;99182.63;5076083;28;45529;-61
2022/04/07 11:31:43;;;;;;;;;0.00;0.00;;;;;23.45;70.17;99179.06;5067238;28;45549;-62
2022/04/07 11:34:39;;;;;;;;;1.00;1.00;;;;;23.46;69.90;99176.25;5070084;28;47470;-60